EIN673 EIDW-EDDH
Flight info
| Callsign | EIN673 |
|---|---|
| Flight time | 1h 42m |
| Altitude | 37000 |
| Route | ENDEQ3J ENDEQ Q36 ALAVA Z195 MALUD UL975 WAL M16 DOLAS L603 LAMSO DCT GASTU DCT OSTOR/N0405F230 T904 RIBSO RIBSO3S |
| Aircraft | A320/M-SDE3FGHIRWY/LB1 |
Departure
| Time | 2026-04-24 23:44 |
|---|---|
| Airport | Dublin Airport (EIDW) |
Arrival
| Time | 2026-04-25 01:26 |
|---|---|
| Airport | Hamburg Helmut Schmidt Airport (EDDH) |
| Time | Latitude | Longitude | Altitude | Speed | Heading |
|---|---|---|---|---|---|
| 2026-04-24 23:30 | 53.42576 | -6.24655 | 225 ft | 0 kts | 72° |
| 2026-04-24 23:33 | 53.42575 | -6.24658 | 225 ft | 2 kts | 72° |
| 2026-04-24 23:33 | 53.42567 | -6.24699 | 227 ft | 4 kts | 70° |
| 2026-04-24 23:33 | 53.42558 | -6.24741 | 226 ft | 4 kts | 70° |
| 2026-04-24 23:33 | 53.42547 | -6.24781 | 227 ft | 4 kts | 50° |
| 2026-04-24 23:34 | 53.42527 | -6.24806 | 227 ft | 4 kts | 5° |
| 2026-04-24 23:34 | 53.42513 | -6.24803 | 226 ft | 1 kts | 336° |
| 2026-04-24 23:34 | 53.42511 | -6.24802 | 226 ft | 0 kts | 336° |
| 2026-04-24 23:37 | 53.42512 | -6.24803 | 225 ft | 2 kts | 336° |
| 2026-04-24 23:37 | 53.42558 | -6.24959 | 226 ft | 10 kts | 288° |
| 2026-04-24 23:38 | 53.42601 | -6.25031 | 225 ft | 8 kts | 329° |
| 2026-04-24 23:38 | 53.42649 | -6.25067 | 225 ft | 7 kts | 346° |
| 2026-04-24 23:38 | 53.42692 | -6.25086 | 225 ft | 6 kts | 344° |
| 2026-04-24 23:38 | 53.42727 | -6.25103 | 225 ft | 5 kts | 344° |
| 2026-04-24 23:39 | 53.42756 | -6.25117 | 225 ft | 4 kts | 344° |
| 2026-04-24 23:39 | 53.42778 | -6.25131 | 226 ft | 3 kts | 335° |
| 2026-04-24 23:39 | 53.42793 | -6.25145 | 225 ft | 2 kts | 328° |
| 2026-04-24 23:39 | 53.42808 | -6.25180 | 225 ft | 6 kts | 288° |
| 2026-04-24 23:40 | 53.42836 | -6.25276 | 226 ft | 13 kts | 328° |
| 2026-04-24 23:40 | 53.42935 | -6.25361 | 225 ft | 18 kts | 334° |
| 2026-04-24 23:40 | 53.43059 | -6.25461 | 227 ft | 21 kts | 334° |
| 2026-04-24 23:40 | 53.43203 | -6.25549 | 225 ft | 23 kts | 360° |
| 2026-04-24 23:41 | 53.43254 | -6.25365 | 226 ft | 21 kts | 102° |
| 2026-04-24 23:41 | 53.43222 | -6.25117 | 225 ft | 23 kts | 98° |
| 2026-04-24 23:41 | 53.43200 | -6.24843 | 225 ft | 25 kts | 97° |
| 2026-04-24 23:41 | 53.43188 | -6.24547 | 225 ft | 26 kts | 91° |
| 2026-04-24 23:42 | 53.43275 | -6.24404 | 225 ft | 19 kts | 8° |
| 2026-04-24 23:42 | 53.43339 | -6.24290 | 225 ft | 15 kts | 95° |
| 2026-04-24 23:42 | 53.43328 | -6.24094 | 224 ft | 18 kts | 95° |
| 2026-04-24 23:42 | 53.43328 | -6.23884 | 224 ft | 12 kts | 38° |
| 2026-04-24 23:43 | 53.43429 | -6.23845 | 219 ft | 19 kts | 13° |
| 2026-04-24 23:43 | 53.43485 | -6.23925 | 216 ft | 11 kts | 278° |
| 2026-04-24 23:43 | 53.43515 | -6.24368 | 221 ft | 77 kts | 275° |
| 2026-04-24 23:43 | 53.43587 | -6.25634 | 225 ft | 138 kts | 275° |
| 2026-04-24 23:44 | 53.43695 | -6.27488 | 392 ft | 170 kts | 275° |
| 2026-04-24 23:44 | 53.43833 | -6.29503 | 934 ft | 183 kts | 283° |
| 2026-04-24 23:44 | 53.44549 | -6.31400 | 1277 ft | 207 kts | 314° |
| 2026-04-24 23:44 | 53.45553 | -6.33258 | 1767 ft | 220 kts | 310° |
| 2026-04-24 23:45 | 53.46786 | -6.34830 | 2396 ft | 229 kts | 339° |
| 2026-04-24 23:45 | 53.48363 | -6.35177 | 3161 ft | 231 kts | 4° |
| 2026-04-24 23:45 | 53.49973 | -6.35029 | 4015 ft | 232 kts | 8° |
| 2026-04-24 23:45 | 53.51463 | -6.34040 | 4844 ft | 232 kts | 40° |
| 2026-04-24 23:46 | 53.52451 | -6.31884 | 5423 ft | 244 kts | 72° |
| 2026-04-24 23:46 | 53.52646 | -6.28965 | 5839 ft | 263 kts | 94° |
| 2026-04-24 23:46 | 53.52574 | -6.25829 | 6615 ft | 271 kts | 94° |
| 2026-04-24 23:46 | 53.52503 | -6.22642 | 7479 ft | 275 kts | 94° |
| 2026-04-24 23:47 | 53.52437 | -6.19421 | 8375 ft | 277 kts | 94° |
| 2026-04-24 23:47 | 53.52375 | -6.16217 | 9283 ft | 279 kts | 93° |
| 2026-04-24 23:47 | 53.52317 | -6.12947 | 10191 ft | 281 kts | 93° |
| 2026-04-24 23:47 | 53.52257 | -6.09566 | 10635 ft | 300 kts | 93° |
| 2026-04-24 23:48 | 53.52028 | -6.05957 | 10911 ft | 321 kts | 104° |
| 2026-04-24 23:48 | 53.51494 | -6.02256 | 11512 ft | 330 kts | 105° |
| 2026-04-24 23:48 | 53.50950 | -5.98487 | 12273 ft | 334 kts | 104° |
| 2026-04-24 23:48 | 53.50403 | -5.94683 | 13061 ft | 337 kts | 105° |
| 2026-04-24 23:49 | 53.49846 | -5.90837 | 13816 ft | 341 kts | 105° |
| 2026-04-24 23:49 | 53.49283 | -5.86946 | 14509 ft | 344 kts | 105° |
| 2026-04-24 23:49 | 53.48717 | -5.83019 | 15159 ft | 348 kts | 104° |
| 2026-04-24 23:49 | 53.48185 | -5.79031 | 15799 ft | 352 kts | 103° |
| 2026-04-24 23:50 | 53.47679 | -5.74982 | 16438 ft | 356 kts | 103° |
| 2026-04-24 23:50 | 53.47178 | -5.70877 | 17073 ft | 360 kts | 103° |
| 2026-04-24 23:50 | 53.46672 | -5.66733 | 17699 ft | 364 kts | 103° |
| 2026-04-24 23:50 | 53.46155 | -5.62542 | 18325 ft | 368 kts | 103° |
| 2026-04-24 23:51 | 53.45624 | -5.58316 | 18883 ft | 372 kts | 104° |
| 2026-04-24 23:51 | 53.45090 | -5.54093 | 19418 ft | 376 kts | 104° |
| 2026-04-24 23:51 | 53.44605 | -5.49756 | 19936 ft | 381 kts | 98° |
| 2026-04-24 23:51 | 53.44443 | -5.45261 | 20348 ft | 390 kts | 94° |
| 2026-04-24 23:52 | 53.44332 | -5.40683 | 20837 ft | 395 kts | 94° |
| 2026-04-24 23:52 | 53.44222 | -5.36040 | 21355 ft | 399 kts | 94° |
| 2026-04-24 23:52 | 53.44113 | -5.31364 | 21860 ft | 404 kts | 94° |
| 2026-04-24 23:52 | 53.43997 | -5.26639 | 22354 ft | 408 kts | 94° |
| 2026-04-24 23:53 | 53.43873 | -5.21868 | 22843 ft | 411 kts | 94° |
| 2026-04-24 23:53 | 53.43744 | -5.17053 | 23324 ft | 415 kts | 94° |
| 2026-04-24 23:53 | 53.43607 | -5.12185 | 23729 ft | 420 kts | 94° |
| 2026-04-24 23:53 | 53.43456 | -5.07260 | 24104 ft | 425 kts | 94° |
| 2026-04-24 23:54 | 53.43295 | -5.02298 | 24493 ft | 428 kts | 94° |
| 2026-04-24 23:54 | 53.43129 | -4.97304 | 24882 ft | 430 kts | 95° |
| 2026-04-24 23:54 | 53.42961 | -4.92280 | 25265 ft | 432 kts | 95° |
| 2026-04-24 23:54 | 53.42789 | -4.87229 | 25643 ft | 435 kts | 95° |
| 2026-04-24 23:55 | 53.42618 | -4.82153 | 26017 ft | 437 kts | 95° |
| 2026-04-24 23:55 | 53.42451 | -4.77052 | 26386 ft | 439 kts | 95° |
| 2026-04-24 23:55 | 53.42286 | -4.71990 | 26748 ft | 442 kts | 95° |
| 2026-04-24 23:55 | 53.42116 | -4.66836 | 27113 ft | 444 kts | 95° |
| 2026-04-24 23:56 | 53.41939 | -4.61649 | 27448 ft | 447 kts | 94° |
| 2026-04-24 23:56 | 53.41758 | -4.56425 | 27734 ft | 450 kts | 94° |
| 2026-04-24 23:56 | 53.41575 | -4.51165 | 28053 ft | 453 kts | 94° |
| 2026-04-24 23:56 | 53.41387 | -4.45888 | 28379 ft | 455 kts | 95° |
| 2026-04-24 23:57 | 53.41193 | -4.40581 | 28702 ft | 457 kts | 95° |
| 2026-04-24 23:57 | 53.40994 | -4.35250 | 29015 ft | 459 kts | 95° |
| 2026-04-24 23:57 | 53.40790 | -4.29891 | 29316 ft | 461 kts | 95° |
| 2026-04-24 23:57 | 53.40586 | -4.24508 | 29605 ft | 463 kts | 95° |
| 2026-04-24 23:58 | 53.40382 | -4.19106 | 29883 ft | 465 kts | 95° |
| 2026-04-24 23:58 | 53.40173 | -4.13688 | 30152 ft | 467 kts | 95° |
| 2026-04-24 23:58 | 53.39958 | -4.08244 | 30369 ft | 470 kts | 94° |
| 2026-04-24 23:58 | 53.39743 | -4.02826 | 30548 ft | 472 kts | 94° |
| 2026-04-24 23:59 | 53.39584 | -3.97323 | 30760 ft | 474 kts | 90° |
| 2026-04-24 23:59 | 53.39795 | -3.91819 | 31056 ft | 473 kts | 85° |
| 2026-04-24 23:59 | 53.40081 | -3.86339 | 31364 ft | 472 kts | 85° |
| 2026-04-24 23:59 | 53.40360 | -3.80876 | 31674 ft | 470 kts | 85° |
| 2026-04-25 00:00 | 53.40635 | -3.75406 | 31987 ft | 469 kts | 85° |
| 2026-04-25 00:00 | 53.40904 | -3.69965 | 32305 ft | 468 kts | 86° |
| 2026-04-25 00:00 | 53.41167 | -3.64537 | 32622 ft | 467 kts | 86° |
| 2026-04-25 00:00 | 53.41265 | -3.59112 | 32926 ft | 465 kts | 93° |
| 2026-04-25 00:01 | 53.41036 | -3.53693 | 33160 ft | 466 kts | 95° |
| 2026-04-25 00:01 | 53.40792 | -3.48278 | 33433 ft | 466 kts | 95° |
| 2026-04-25 00:01 | 53.40547 | -3.42870 | 33733 ft | 465 kts | 95° |
| 2026-04-25 00:01 | 53.40303 | -3.37468 | 34045 ft | 464 kts | 95° |
| 2026-04-25 00:02 | 53.40060 | -3.32075 | 34346 ft | 463 kts | 95° |
| 2026-04-25 00:02 | 53.39814 | -3.26697 | 34609 ft | 462 kts | 95° |
| 2026-04-25 00:02 | 53.39563 | -3.21325 | 34865 ft | 462 kts | 95° |
| 2026-04-25 00:02 | 53.39395 | -3.17768 | 35030 ft | 462 kts | 95° |
| 2026-04-25 00:03 | 53.39141 | -3.12409 | 35268 ft | 461 kts | 95° |
| 2026-04-25 00:03 | 53.38913 | -3.07054 | 35509 ft | 461 kts | 94° |
| 2026-04-25 00:03 | 53.38716 | -3.01688 | 35683 ft | 462 kts | 94° |
| 2026-04-25 00:03 | 53.38534 | -2.96308 | 35877 ft | 463 kts | 94° |
| 2026-04-25 00:04 | 53.38350 | -2.90929 | 36087 ft | 463 kts | 94° |
| 2026-04-25 00:04 | 53.38155 | -2.85552 | 36299 ft | 462 kts | 94° |
| 2026-04-25 00:04 | 53.37950 | -2.80178 | 36511 ft | 462 kts | 94° |
| 2026-04-25 00:04 | 53.37670 | -2.73073 | 36789 ft | 462 kts | 94° |
| 2026-04-25 00:05 | 53.37525 | -2.69451 | 36927 ft | 461 kts | 94° |
| 2026-04-25 00:05 | 53.37308 | -2.64093 | 37130 ft | 461 kts | 94° |
| 2026-04-25 00:05 | 53.37090 | -2.58739 | 37250 ft | 461 kts | 94° |
| 2026-04-25 00:05 | 53.36871 | -2.53448 | 37270 ft | 461 kts | 94° |
| 2026-04-25 00:06 | 53.36420 | -2.42733 | 37274 ft | 461 kts | 94° |
| 2026-04-25 00:06 | 53.35958 | -2.32030 | 37275 ft | 461 kts | 94° |
| 2026-04-25 00:07 | 53.35225 | -2.21375 | 37276 ft | 461 kts | 100° |
| 2026-04-25 00:07 | 53.34139 | -2.10805 | 37275 ft | 461 kts | 100° |
| 2026-04-25 00:08 | 53.33038 | -2.00218 | 37280 ft | 462 kts | 99° |
| 2026-04-25 00:08 | 53.31939 | -1.89625 | 37271 ft | 462 kts | 99° |
| 2026-04-25 00:09 | 53.30837 | -1.79036 | 37267 ft | 462 kts | 99° |
| 2026-04-25 00:09 | 53.29710 | -1.68450 | 37266 ft | 462 kts | 100° |
| 2026-04-25 00:10 | 53.28572 | -1.57877 | 37264 ft | 462 kts | 100° |
| 2026-04-25 00:10 | 53.27434 | -1.47298 | 37270 ft | 463 kts | 99° |
| 2026-04-25 00:11 | 53.26286 | -1.36759 | 37261 ft | 464 kts | 99° |
| 2026-04-25 00:11 | 53.25123 | -1.26154 | 37261 ft | 464 kts | 99° |
| 2026-04-25 00:12 | 53.23949 | -1.15552 | 37251 ft | 465 kts | 100° |
| 2026-04-25 00:12 | 53.22758 | -1.04934 | 37256 ft | 465 kts | 100° |
| 2026-04-25 00:13 | 53.21565 | -0.94333 | 37274 ft | 465 kts | 99° |
| 2026-04-25 00:13 | 53.20358 | -0.83722 | 37264 ft | 465 kts | 100° |
| 2026-04-25 00:14 | 53.19146 | -0.73128 | 37258 ft | 465 kts | 100° |
| 2026-04-25 00:14 | 53.17922 | -0.62517 | 37256 ft | 465 kts | 100° |
| 2026-04-25 00:15 | 53.16690 | -0.51923 | 37257 ft | 465 kts | 100° |
| 2026-04-25 00:15 | 53.15453 | -0.41395 | 37255 ft | 466 kts | 100° |
| 2026-04-25 00:16 | 53.14201 | -0.30806 | 37285 ft | 466 kts | 100° |
| 2026-04-25 00:16 | 53.12939 | -0.20238 | 37285 ft | 466 kts | 100° |
| 2026-04-25 00:17 | 53.11660 | -0.09666 | 37285 ft | 466 kts | 100° |
| 2026-04-25 00:17 | 53.10383 | 0.00903 | 37282 ft | 466 kts | 100° |
| 2026-04-25 00:18 | 53.09091 | 0.11478 | 37276 ft | 466 kts | 100° |
| 2026-04-25 00:18 | 53.07790 | 0.22041 | 37270 ft | 466 kts | 100° |
| 2026-04-25 00:19 | 53.06480 | 0.32604 | 37272 ft | 467 kts | 100° |
| 2026-04-25 00:19 | 53.05161 | 0.43178 | 37278 ft | 467 kts | 101° |
| 2026-04-25 00:20 | 53.03830 | 0.53746 | 37287 ft | 467 kts | 101° |
| 2026-04-25 00:20 | 53.02492 | 0.64320 | 37267 ft | 468 kts | 101° |
| 2026-04-25 00:21 | 53.01149 | 0.74833 | 37265 ft | 469 kts | 101° |
| 2026-04-25 00:21 | 52.99774 | 0.85425 | 37259 ft | 469 kts | 101° |
| 2026-04-25 00:22 | 52.98391 | 0.96013 | 37268 ft | 469 kts | 101° |
| 2026-04-25 00:22 | 52.97042 | 1.06611 | 37273 ft | 470 kts | 99° |
| 2026-04-25 00:23 | 52.95831 | 1.17284 | 37269 ft | 471 kts | 98° |
| 2026-04-25 00:23 | 52.94650 | 1.27976 | 37266 ft | 472 kts | 99° |
| 2026-04-25 00:24 | 52.93421 | 1.38687 | 37264 ft | 472 kts | 99° |
| 2026-04-25 00:24 | 52.92151 | 1.49298 | 37264 ft | 473 kts | 99° |
| 2026-04-25 00:25 | 52.90858 | 1.59992 | 37276 ft | 474 kts | 100° |
| 2026-04-25 00:25 | 52.89570 | 1.70698 | 37268 ft | 474 kts | 99° |
| 2026-04-25 00:26 | 52.88275 | 1.81413 | 37264 ft | 475 kts | 100° |
| 2026-04-25 00:26 | 52.86969 | 1.92133 | 37267 ft | 475 kts | 100° |
| 2026-04-25 00:27 | 52.85653 | 2.02852 | 37307 ft | 475 kts | 100° |
| 2026-04-25 00:27 | 52.84331 | 2.13569 | 37285 ft | 476 kts | 100° |
| 2026-04-25 00:28 | 52.82993 | 2.24295 | 37278 ft | 476 kts | 100° |
| 2026-04-25 00:28 | 52.81642 | 2.34997 | 37278 ft | 476 kts | 100° |
| 2026-04-25 00:29 | 52.80273 | 2.45713 | 37275 ft | 476 kts | 101° |
| 2026-04-25 00:29 | 52.78896 | 2.56399 | 37291 ft | 476 kts | 101° |
| 2026-04-25 00:30 | 52.77517 | 2.67116 | 37277 ft | 477 kts | 101° |
| 2026-04-25 00:30 | 52.76127 | 2.77819 | 37273 ft | 477 kts | 101° |
| 2026-04-25 00:31 | 52.74737 | 2.88454 | 37266 ft | 477 kts | 101° |
| 2026-04-25 00:31 | 52.74111 | 2.99285 | 37264 ft | 473 kts | 84° |
| 2026-04-25 00:32 | 52.75413 | 3.09823 | 37270 ft | 468 kts | 68° |
| 2026-04-25 00:32 | 52.77495 | 3.20015 | 37258 ft | 468 kts | 69° |
| 2026-04-25 00:33 | 52.79558 | 3.30229 | 37260 ft | 469 kts | 69° |
| 2026-04-25 00:33 | 52.81617 | 3.40461 | 37261 ft | 469 kts | 69° |
| 2026-04-25 00:34 | 52.83657 | 3.50659 | 37261 ft | 469 kts | 69° |
| 2026-04-25 00:34 | 52.85699 | 3.60927 | 37258 ft | 471 kts | 69° |
| 2026-04-25 00:35 | 52.87736 | 3.71235 | 37246 ft | 471 kts | 69° |
| 2026-04-25 00:35 | 52.89771 | 3.81560 | 37244 ft | 472 kts | 69° |
| 2026-04-25 00:36 | 52.91804 | 3.91903 | 37238 ft | 472 kts | 69° |
| 2026-04-25 00:36 | 52.93823 | 4.02265 | 37239 ft | 473 kts | 70° |
| 2026-04-25 00:37 | 52.95823 | 4.12627 | 37271 ft | 471 kts | 70° |
| 2026-04-25 00:37 | 52.97808 | 4.22968 | 37268 ft | 469 kts | 70° |
| 2026-04-25 00:38 | 52.99787 | 4.33284 | 37269 ft | 469 kts | 70° |
| 2026-04-25 00:38 | 53.01759 | 4.43594 | 37265 ft | 468 kts | 70° |
| 2026-04-25 00:39 | 53.03717 | 4.53902 | 37258 ft | 468 kts | 70° |
| 2026-04-25 00:39 | 53.05665 | 4.64215 | 37255 ft | 468 kts | 70° |
| 2026-04-25 00:40 | 53.07607 | 4.74552 | 37261 ft | 468 kts | 70° |
| 2026-04-25 00:40 | 53.09521 | 4.84823 | 37240 ft | 468 kts | 70° |
| 2026-04-25 00:41 | 53.11438 | 4.95174 | 37238 ft | 468 kts | 71° |
| 2026-04-25 00:41 | 53.13347 | 5.05525 | 37238 ft | 468 kts | 71° |
| 2026-04-25 00:42 | 53.15248 | 5.15894 | 37255 ft | 467 kts | 71° |
| 2026-04-25 00:42 | 53.17135 | 5.26233 | 37257 ft | 466 kts | 71° |
| 2026-04-25 00:43 | 53.19006 | 5.36563 | 37251 ft | 465 kts | 71° |
| 2026-04-25 00:43 | 53.20860 | 5.46878 | 37243 ft | 464 kts | 71° |
| 2026-04-25 00:44 | 53.22697 | 5.57112 | 37252 ft | 463 kts | 71° |
| 2026-04-25 00:44 | 53.24535 | 5.67412 | 37237 ft | 463 kts | 71° |
| 2026-04-25 00:45 | 53.26369 | 5.77741 | 37218 ft | 464 kts | 71° |
| 2026-04-25 00:45 | 53.28202 | 5.88106 | 37216 ft | 465 kts | 71° |
| 2026-04-25 00:46 | 53.30016 | 5.98502 | 37211 ft | 466 kts | 72° |
| 2026-04-25 00:47 | 53.32728 | 6.14126 | 37214 ft | 467 kts | 72° |
| 2026-04-25 00:47 | 53.34536 | 6.24569 | 37203 ft | 468 kts | 72° |
| 2026-04-25 00:48 | 53.36344 | 6.35048 | 37190 ft | 469 kts | 72° |
| 2026-04-25 00:48 | 53.38139 | 6.45546 | 37187 ft | 469 kts | 72° |
| 2026-04-25 00:49 | 53.39917 | 6.56080 | 37189 ft | 470 kts | 72° |
| 2026-04-25 00:49 | 53.41692 | 6.66639 | 37202 ft | 470 kts | 72° |
| 2026-04-25 00:50 | 53.43165 | 6.75411 | 37192 ft | 471 kts | 72° |
| 2026-04-25 00:50 | 53.44935 | 6.86012 | 37178 ft | 472 kts | 72° |
| 2026-04-25 00:51 | 53.46699 | 6.96651 | 37179 ft | 474 kts | 72° |
| 2026-04-25 00:51 | 53.48455 | 7.07319 | 37072 ft | 474 kts | 72° |
| 2026-04-25 00:51 | 53.49333 | 7.12695 | 36034 ft | 481 kts | 73° |
| 2026-04-25 00:52 | 53.50223 | 7.18146 | 34977 ft | 486 kts | 73° |
| 2026-04-25 00:52 | 53.51119 | 7.23640 | 33982 ft | 488 kts | 73° |
| 2026-04-25 00:52 | 53.52015 | 7.29146 | 32899 ft | 489 kts | 73° |
| 2026-04-25 00:52 | 53.52902 | 7.34631 | 31955 ft | 483 kts | 73° |
| 2026-04-25 00:53 | 53.53778 | 7.40064 | 30947 ft | 480 kts | 73° |
| 2026-04-25 00:53 | 53.54645 | 7.45459 | 30055 ft | 475 kts | 73° |
| 2026-04-25 00:53 | 53.55492 | 7.50732 | 28992 ft | 472 kts | 73° |
| 2026-04-25 00:53 | 53.56352 | 7.56112 | 28193 ft | 467 kts | 73° |
| 2026-04-25 00:54 | 53.57170 | 7.61268 | 27521 ft | 459 kts | 73° |
| 2026-04-25 00:54 | 53.57987 | 7.66436 | 26845 ft | 454 kts | 73° |
| 2026-04-25 00:54 | 53.58792 | 7.71544 | 26174 ft | 450 kts | 73° |
| 2026-04-25 00:54 | 53.59591 | 7.76608 | 25515 ft | 446 kts | 73° |
| 2026-04-25 00:55 | 53.60384 | 7.81629 | 24869 ft | 443 kts | 73° |
| 2026-04-25 00:55 | 53.61167 | 7.86613 | 24548 ft | 438 kts | 73° |
| 2026-04-25 00:55 | 53.61941 | 7.91565 | 24310 ft | 437 kts | 73° |
| 2026-04-25 00:55 | 53.62712 | 7.96505 | 24078 ft | 436 kts | 73° |
| 2026-04-25 00:56 | 53.63485 | 8.01441 | 23836 ft | 435 kts | 72° |
| 2026-04-25 00:56 | 53.64328 | 8.06328 | 23572 ft | 434 kts | 71° |
| 2026-04-25 00:56 | 53.65244 | 8.11161 | 23294 ft | 432 kts | 69° |
| 2026-04-25 00:56 | 53.66197 | 8.15949 | 23015 ft | 430 kts | 69° |
| 2026-04-25 00:57 | 53.67155 | 8.20705 | 22739 ft | 427 kts | 69° |
| 2026-04-25 00:57 | 53.68099 | 8.25452 | 22463 ft | 425 kts | 69° |
| 2026-04-25 00:57 | 53.69020 | 8.30181 | 22201 ft | 423 kts | 70° |
| 2026-04-25 00:57 | 53.69920 | 8.34905 | 21940 ft | 421 kts | 70° |
| 2026-04-25 00:58 | 53.70804 | 8.39613 | 21698 ft | 421 kts | 70° |
| 2026-04-25 00:58 | 53.71681 | 8.44317 | 21431 ft | 420 kts | 70° |
| 2026-04-25 00:58 | 53.72554 | 8.49002 | 21120 ft | 414 kts | 70° |
| 2026-04-25 00:58 | 53.73413 | 8.53616 | 20628 ft | 410 kts | 70° |
| 2026-04-25 00:59 | 53.74264 | 8.58192 | 20145 ft | 407 kts | 69° |
| 2026-04-25 00:59 | 53.75112 | 8.62740 | 19651 ft | 403 kts | 69° |
| 2026-04-25 00:59 | 53.75952 | 8.67247 | 19159 ft | 400 kts | 69° |
| 2026-04-25 00:59 | 53.76784 | 8.71723 | 18653 ft | 398 kts | 69° |
| 2026-04-25 01:00 | 53.77612 | 8.76178 | 18128 ft | 396 kts | 69° |
| 2026-04-25 01:00 | 53.78430 | 8.80597 | 17584 ft | 392 kts | 69° |
| 2026-04-25 01:00 | 53.79225 | 8.84923 | 17081 ft | 389 kts | 69° |
| 2026-04-25 01:00 | 53.80024 | 8.89281 | 16559 ft | 386 kts | 69° |
| 2026-04-25 01:01 | 53.80815 | 8.93613 | 16052 ft | 384 kts | 69° |
| 2026-04-25 01:01 | 53.81601 | 8.97923 | 15532 ft | 383 kts | 69° |
| 2026-04-25 01:01 | 53.82357 | 9.02230 | 15006 ft | 382 kts | 73° |
| 2026-04-25 01:01 | 53.82735 | 9.06690 | 14490 ft | 384 kts | 85° |
| 2026-04-25 01:02 | 53.82621 | 9.11215 | 13964 ft | 385 kts | 94° |
| 2026-04-25 01:02 | 53.82354 | 9.15720 | 13378 ft | 384 kts | 94° |
| 2026-04-25 01:02 | 53.82090 | 9.20194 | 12838 ft | 381 kts | 94° |
| 2026-04-25 01:02 | 53.81828 | 9.24634 | 12296 ft | 378 kts | 94° |
| 2026-04-25 01:03 | 53.81568 | 9.29050 | 11745 ft | 375 kts | 94° |
| 2026-04-25 01:03 | 53.81324 | 9.33427 | 11191 ft | 372 kts | 90° |
| 2026-04-25 01:03 | 53.81386 | 9.37760 | 10883 ft | 363 kts | 84° |
| 2026-04-25 01:03 | 53.81520 | 9.42018 | 10807 ft | 362 kts | 84° |
| 2026-04-25 01:04 | 53.81644 | 9.46266 | 10700 ft | 360 kts | 84° |
| 2026-04-25 01:04 | 53.81756 | 9.50414 | 10566 ft | 346 kts | 84° |
| 2026-04-25 01:04 | 53.81857 | 9.54394 | 10443 ft | 332 kts | 84° |
| 2026-04-25 01:04 | 53.81953 | 9.58232 | 10315 ft | 321 kts | 84° |
| 2026-04-25 01:05 | 53.81959 | 9.61967 | 10065 ft | 317 kts | 95° |
| 2026-04-25 01:05 | 53.81340 | 9.65489 | 9973 ft | 309 kts | 116° |
| 2026-04-25 01:05 | 53.80119 | 9.68386 | 9840 ft | 298 kts | 137° |
| 2026-04-25 01:05 | 53.78486 | 9.70399 | 9688 ft | 285 kts | 155° |
| 2026-04-25 01:06 | 53.76764 | 9.71898 | 9497 ft | 279 kts | 155° |
| 2026-04-25 01:06 | 53.75043 | 9.73395 | 9419 ft | 278 kts | 155° |
| 2026-04-25 01:06 | 53.73320 | 9.74894 | 9366 ft | 278 kts | 155° |
| 2026-04-25 01:06 | 53.71596 | 9.76392 | 9295 ft | 278 kts | 155° |
| 2026-04-25 01:07 | 53.69876 | 9.77890 | 9197 ft | 278 kts | 155° |
| 2026-04-25 01:07 | 53.68158 | 9.79390 | 9082 ft | 278 kts | 155° |
| 2026-04-25 01:07 | 53.66444 | 9.80887 | 8969 ft | 277 kts | 155° |
| 2026-04-25 01:07 | 53.64731 | 9.82382 | 8862 ft | 277 kts | 155° |
| 2026-04-25 01:08 | 53.63019 | 9.83875 | 8751 ft | 276 kts | 155° |
| 2026-04-25 01:08 | 53.61314 | 9.85359 | 8674 ft | 276 kts | 155° |
| 2026-04-25 01:08 | 53.59606 | 9.86840 | 8563 ft | 275 kts | 155° |
| 2026-04-25 01:08 | 53.57902 | 9.88314 | 8438 ft | 274 kts | 155° |
| 2026-04-25 01:09 | 53.56232 | 9.89755 | 8340 ft | 273 kts | 155° |
| 2026-04-25 01:09 | 53.54522 | 9.91228 | 8235 ft | 272 kts | 155° |
| 2026-04-25 01:09 | 53.52860 | 9.92659 | 8137 ft | 272 kts | 155° |
| 2026-04-25 01:09 | 53.51180 | 9.94107 | 8020 ft | 271 kts | 155° |
| 2026-04-25 01:10 | 53.49505 | 9.95552 | 7914 ft | 271 kts | 155° |
| 2026-04-25 01:10 | 53.47831 | 9.96998 | 7806 ft | 270 kts | 155° |
| 2026-04-25 01:10 | 53.46160 | 9.98438 | 7696 ft | 270 kts | 155° |
| 2026-04-25 01:10 | 53.44489 | 9.99874 | 7590 ft | 270 kts | 155° |
| 2026-04-25 01:11 | 53.42820 | 10.01306 | 7455 ft | 269 kts | 155° |
| 2026-04-25 01:11 | 53.41152 | 10.02740 | 7356 ft | 269 kts | 155° |
| 2026-04-25 01:11 | 53.39493 | 10.04168 | 7250 ft | 268 kts | 155° |
| 2026-04-25 01:11 | 53.37835 | 10.05594 | 7143 ft | 268 kts | 155° |
| 2026-04-25 01:12 | 53.36177 | 10.07014 | 7036 ft | 267 kts | 155° |
| 2026-04-25 01:12 | 53.34524 | 10.08425 | 6924 ft | 267 kts | 155° |
| 2026-04-25 01:12 | 53.32872 | 10.09832 | 6826 ft | 266 kts | 155° |
| 2026-04-25 01:12 | 53.31221 | 10.11238 | 6722 ft | 266 kts | 155° |
| 2026-04-25 01:13 | 53.29576 | 10.12641 | 6597 ft | 264 kts | 155° |
| 2026-04-25 01:13 | 53.27940 | 10.14036 | 6505 ft | 264 kts | 155° |
| 2026-04-25 01:13 | 53.26306 | 10.15427 | 6402 ft | 263 kts | 155° |
| 2026-04-25 01:13 | 53.24672 | 10.16820 | 6297 ft | 263 kts | 155° |
| 2026-04-25 01:14 | 53.23042 | 10.18207 | 6198 ft | 263 kts | 155° |
| 2026-04-25 01:14 | 53.21412 | 10.19595 | 6090 ft | 263 kts | 154° |
| 2026-04-25 01:14 | 53.19783 | 10.20982 | 5974 ft | 262 kts | 154° |
| 2026-04-25 01:14 | 53.18306 | 10.22735 | 5851 ft | 262 kts | 130° |
| 2026-04-25 01:15 | 53.17426 | 10.25351 | 5737 ft | 259 kts | 102° |
| 2026-04-25 01:15 | 53.17312 | 10.28280 | 5600 ft | 251 kts | 75° |
| 2026-04-25 01:15 | 53.17901 | 10.30946 | 5483 ft | 243 kts | 56° |
| 2026-04-25 01:15 | 53.18928 | 10.33097 | 5350 ft | 233 kts | 33° |
| 2026-04-25 01:16 | 53.20308 | 10.34316 | 5237 ft | 224 kts | 9° |
| 2026-04-25 01:16 | 53.21825 | 10.34478 | 5140 ft | 217 kts | 347° |
| 2026-04-25 01:16 | 53.23235 | 10.33647 | 5035 ft | 215 kts | 331° |
| 2026-04-25 01:16 | 53.24572 | 10.32508 | 4853 ft | 216 kts | 332° |
| 2026-04-25 01:17 | 53.25892 | 10.31386 | 4745 ft | 213 kts | 332° |
| 2026-04-25 01:17 | 53.27215 | 10.30260 | 4662 ft | 213 kts | 332° |
| 2026-04-25 01:17 | 53.28535 | 10.29139 | 4583 ft | 213 kts | 332° |
| 2026-04-25 01:17 | 53.29854 | 10.28019 | 4470 ft | 212 kts | 332° |
| 2026-04-25 01:18 | 53.31157 | 10.26913 | 4199 ft | 208 kts | 332° |
| 2026-04-25 01:18 | 53.32447 | 10.25816 | 4097 ft | 208 kts | 332° |
| 2026-04-25 01:18 | 53.33739 | 10.24715 | 3995 ft | 208 kts | 332° |
| 2026-04-25 01:18 | 53.35024 | 10.23618 | 3896 ft | 207 kts | 332° |
| 2026-04-25 01:19 | 53.36304 | 10.22527 | 3790 ft | 206 kts | 332° |
| 2026-04-25 01:19 | 53.37575 | 10.21444 | 3683 ft | 205 kts | 332° |
| 2026-04-25 01:19 | 53.38852 | 10.20356 | 3587 ft | 205 kts | 332° |
| 2026-04-25 01:19 | 53.40127 | 10.19270 | 3487 ft | 205 kts | 332° |
| 2026-04-25 01:20 | 53.41396 | 10.18187 | 3383 ft | 205 kts | 332° |
| 2026-04-25 01:20 | 53.42665 | 10.17105 | 3261 ft | 204 kts | 332° |
| 2026-04-25 01:20 | 53.43900 | 10.16053 | 3134 ft | 194 kts | 332° |
| 2026-04-25 01:20 | 53.45078 | 10.15045 | 3001 ft | 188 kts | 332° |
| 2026-04-25 01:21 | 53.46236 | 10.14050 | 2873 ft | 187 kts | 332° |
| 2026-04-25 01:21 | 53.47365 | 10.13084 | 2780 ft | 175 kts | 332° |
| 2026-04-25 01:21 | 53.48408 | 10.12192 | 2644 ft | 162 kts | 332° |
| 2026-04-25 01:21 | 53.49367 | 10.11370 | 2511 ft | 151 kts | 332° |
| 2026-04-25 01:22 | 53.50271 | 10.10599 | 2366 ft | 140 kts | 331° |
| 2026-04-25 01:22 | 53.51111 | 10.09881 | 2234 ft | 133 kts | 330° |
| 2026-04-25 01:22 | 53.51922 | 10.09187 | 2121 ft | 129 kts | 329° |
| 2026-04-25 01:22 | 53.52718 | 10.08505 | 2058 ft | 128 kts | 329° |
| 2026-04-25 01:23 | 53.53509 | 10.07826 | 2012 ft | 127 kts | 329° |
| 2026-04-25 01:23 | 53.54297 | 10.07149 | 2013 ft | 127 kts | 329° |
| 2026-04-25 01:23 | 53.55082 | 10.06474 | 1997 ft | 128 kts | 329° |
| 2026-04-25 01:23 | 53.55876 | 10.05807 | 1696 ft | 128 kts | 330° |
| 2026-04-25 01:24 | 53.56664 | 10.05165 | 1505 ft | 123 kts | 330° |
| 2026-04-25 01:24 | 53.57465 | 10.04526 | 1237 ft | 129 kts | 329° |
| 2026-04-25 01:24 | 53.58240 | 10.03828 | 980 ft | 124 kts | 324° |
| 2026-04-25 01:24 | 53.58984 | 10.03074 | 819 ft | 125 kts | 325° |
| 2026-04-25 01:25 | 53.59772 | 10.02443 | 692 ft | 125 kts | 327° |
| 2026-04-25 01:25 | 53.60546 | 10.01782 | 603 ft | 125 kts | 328° |
| 2026-04-25 01:25 | 53.61326 | 10.01076 | 420 ft | 127 kts | 329° |
| 2026-04-25 01:25 | 53.62109 | 10.00412 | 194 ft | 122 kts | 330° |
| 2026-04-25 01:26 | 53.62864 | 9.99750 | 64 ft | 123 kts | 326° |
| 2026-04-25 01:26 | 53.63491 | 9.99194 | 46 ft | 65 kts | 333° |
| 2026-04-25 01:26 | 53.63758 | 9.98956 | 41 ft | 39 kts | 330° |
| 2026-04-25 01:26 | 53.63989 | 9.98772 | 41 ft | 35 kts | 338° |
| 2026-04-25 01:27 | 53.64200 | 9.98599 | 42 ft | 33 kts | 331° |
| 2026-04-25 01:27 | 53.64401 | 9.98418 | 39 ft | 33 kts | 333° |
| 2026-04-25 01:27 | 53.64593 | 9.98374 | 40 ft | 26 kts | 1° |
| 2026-04-25 01:28 | 53.64632 | 9.98558 | 39 ft | 12 kts | 154° |
| 2026-04-25 01:28 | 53.64561 | 9.98618 | 41 ft | 11 kts | 153° |
| 2026-04-25 01:28 | 53.64497 | 9.98675 | 41 ft | 10 kts | 152° |
| 2026-04-25 01:28 | 53.64439 | 9.98727 | 42 ft | 9 kts | 152° |
| 2026-04-25 01:29 | 53.64387 | 9.98772 | 41 ft | 8 kts | 153° |
| 2026-04-25 01:29 | 53.64340 | 9.98811 | 41 ft | 7 kts | 153° |
| 2026-04-25 01:29 | 53.64299 | 9.98846 | 41 ft | 6 kts | 153° |
| 2026-04-25 01:29 | 53.64264 | 9.98877 | 42 ft | 5 kts | 153° |
| 2026-04-25 01:30 | 53.64235 | 9.98902 | 42 ft | 4 kts | 152° |
| 2026-04-25 01:30 | 53.64212 | 9.98922 | 41 ft | 3 kts | 152° |
| 2026-04-25 01:30 | 53.64159 | 9.98971 | 42 ft | 23 kts | 151° |
| 2026-04-25 01:30 | 53.63983 | 9.99123 | 43 ft | 30 kts | 153° |
| 2026-04-25 01:31 | 53.63802 | 9.99295 | 44 ft | 29 kts | 146° |
| 2026-04-25 01:31 | 53.63679 | 9.99533 | 43 ft | 26 kts | 125° |
| 2026-04-25 01:31 | 53.63583 | 9.99769 | 46 ft | 16 kts | 122° |
| 2026-04-25 01:31 | 53.63518 | 9.99922 | 45 ft | 16 kts | 126° |
| 2026-04-25 01:32 | 53.63455 | 10.00067 | 46 ft | 13 kts | 126° |
| 2026-04-25 01:32 | 53.63404 | 10.00178 | 46 ft | 11 kts | 134° |
| 2026-04-25 01:32 | 53.63370 | 10.00262 | 43 ft | 6 kts | 89° |
| 2026-04-25 01:32 | 53.63374 | 10.00330 | 46 ft | 5 kts | 85° |
| 2026-04-25 01:33 | 53.63374 | 10.00343 | 46 ft | 0 kts | 84° |